Terminal Aerodrome Forecast
Issued by NWS

Home | Current Version | Previous Version | Graphics & Text | Print | Product List | Glossary On
Versions: 1 2 3 4 5 6 7 8 9 10 11 12 13 14 15 16 17 18 19 20
000
FTUS43 KFGF 222340 AAA
TAFBJI
TAF AMD
KBJI 222340Z 2300/2324 15015KT P6SM BKN060
     FM230100 17009KT P6SM BKN090
     FM230900 17009KT P6SM SCT090
     FM231100 17009KT P6SM BKN130
     FM231800 18009KT P6SM BKN020
     FM231900 17008KT P6SM OVC015=

USA.gov is the U.S. government's official web portal to all federal, state and local government web resources and services.